Time;durP1;ratioP1;P1;durP2;ratioP2;P2;SDS_P1;SDS_P2;PMS_P1;PMS_P2;Temp;Humidity;BMP_temperature;BMP_pressure;BME280_temperature;BME280_humidity;BME280_pressure;Samples;Min_cycle;Max_cycle;Signal;HPM_P1;HPM_P2
2023/04/12 00:00:37;;;;;;;;;;;;;;;9.25;100.00;97593.22;5088266;28;19931;-73
2023/04/12 00:03:06;;;;;;;;;;;;;;;9.05;100.00;97593.94;5066700;28;19940;-73
2023/04/12 00:05:33;;;;;;;;;;;;;;;8.64;100.00;97584.94;5065018;28;19925;-73
2023/04/12 00:08:01;;;;;;;;;;;;;;;8.58;100.00;97582.50;5083616;28;19925;-71
2023/04/12 00:10:27;;;;;;;;;;;;;;;8.32;100.00;97578.91;5086153;28;19925;-71
2023/04/12 00:12:55;;;;;;;;;;;;;;;8.48;100.00;97582.47;5085977;28;19925;-71
2023/04/12 00:15:21;;;;;;;;;;;;;;;8.73;100.00;97582.59;5082581;28;19936;-71
2023/04/12 00:17:47;;;;;;;;;;;;;;;8.96;100.00;97578.69;5082611;28;19925;-72
2023/04/12 00:20:15;;;;;;;;;;;;;;;8.72;100.00;97572.22;5085591;28;19935;-73
2023/04/12 00:22:42;;;;;;;;;;;;;;;8.43;100.00;97561.13;5068101;28;19982;-72
2023/04/12 00:25:08;;;;;;;;;;;;;;;8.36;100.00;97558.69;5066040;28;19924;-73
2023/04/12 00:27:35;;;;;;;;;;;;;;;8.44;100.00;97554.75;5082816;28;19924;-73
2023/04/12 00:30:03;;;;;;;;;;;;;;;8.46;100.00;97553.44;5085701;28;19946;-72
2023/04/12 00:32:29;;;;;;;;;;;;;;;8.54;100.00;97544.19;5068433;28;19932;-71
2023/04/12 00:34:56;;;;;;;;;;;;;;;8.54;100.00;97542.28;5085702;28;19924;-73
2023/04/12 00:37:22;;;;;;;;;;;;;;;8.03;100.00;97543.03;5082607;28;19925;-72
2023/04/12 00:39:48;;;;;;;;;;;;;;;7.83;100.00;97529.59;5082606;28;20390;-71
2023/04/12 00:42:15;;;;;;;;;;;;;;;7.86;100.00;97526.44;5084568;28;19925;-70
2023/04/12 00:44:41;;;;;;;;;;;;;;;7.90;100.00;97522.19;5086089;28;19932;-70
2023/04/12 00:47:09;;;;;;;;;;;;;;;7.96;100.00;97521.16;5066159;28;19925;-71
2023/04/12 00:49:36;;;;;;;;;;;;;;;8.03;100.00;97511.13;5082363;28;19932;-73
2023/04/12 00:52:06;;;;;;;;;;;;;;;8.24;100.00;97510.19;5065938;28;19927;-72
2023/04/12 00:54:33;;;;;;;;;;;;;;;8.04;100.00;97497.56;5085912;28;19920;-73
2023/04/12 00:57:00;;;;;;;;;;;;;;;8.12;100.00;97498.94;5084933;28;19924;-72
2023/04/12 00:59:26;;;;;;;;;;;;;;;8.23;100.00;97495.28;5082799;28;19925;-70
2023/04/12 01:01:53;;;;;;;;;;;;;;;8.05;100.00;97503.66;5066984;28;19925;-73
2023/04/12 01:04:25;;;;;;;;;;;;;;;8.09;100.00;97496.78;5082277;28;19920;-73
2023/04/12 01:07:02;;;;;;;;;;;;;;;8.14;100.00;97502.94;5064707;28;19929;-73
2023/04/12 01:09:34;;;;;;;;;;;;;;;8.58;100.00;97492.00;5087441;28;19925;-71
2023/04/12 01:12:05;;;;;;;;;;;;;;;8.77;100.00;97489.69;5084543;28;20473;-72
2023/04/12 01:14:36;;;;;;;;;;;;;;;8.86;100.00;97486.25;5082161;28;19928;-71
2023/04/12 01:17:04;;;;;;;;;;;;;;;8.88;100.00;97481.47;5083519;28;19936;-70
2023/04/12 01:19:45;;;;;;;;;;;;;;;8.89;100.00;97482.28;5067901;28;19924;-72
2023/04/12 01:22:17;;;;;;;;;;;;;;;8.89;100.00;97482.28;5084978;28;19924;-70
2023/04/12 01:24:51;;;;;;;;;;;;;;;8.93;100.00;97494.00;5085836;28;20588;-71
2023/04/12 01:27:34;;;;;;;;;;;;;;;8.76;100.00;97490.78;5089314;28;20007;-72
2023/04/12 01:30:01;;;;;;;;;;;;;;;8.66;100.00;97483.53;5088883;28;19928;-72
2023/04/12 01:32:28;;;;;;;;;;;;;;;8.64;100.00;97475.81;5089188;28;19924;-70
2023/04/12 01:34:55;;;;;;;;;;;;;;;8.64;100.00;97478.47;5088713;28;19935;-72
2023/04/12 01:37:22;;;;;;;;;;;;;;;8.69;100.00;97469.72;5084480;28;19928;-72
2023/04/12 01:39:49;;;;;;;;;;;;;;;8.70;100.00;97459.88;5085528;28;19925;-73
2023/04/12 01:42:18;;;;;;;;;;;;;;;8.65;100.00;97457.97;5088414;28;19935;-72
2023/04/12 01:44:46;;;;;;;;;;;;;;;8.52;100.00;97469.09;5088745;28;19924;-72
2023/04/12 01:47:13;;;;;;;;;;;;;;;8.37;100.00;97464.53;5086071;28;19928;-71
2023/04/12 01:49:44;;;;;;;;;;;;;;;7.95;100.00;97459.19;5067739;28;19925;-71
2023/04/12 01:52:12;;;;;;;;;;;;;;;7.89;100.00;97452.25;5069937;28;19925;-71
2023/04/12 01:54:41;;;;;;;;;;;;;;;7.65;100.00;97455.53;5088597;28;19950;-72
2023/04/12 01:57:08;;;;;;;;;;;;;;;7.47;100.00;97448.78;5086580;28;19924;-71
2023/04/12 01:59:36;;;;;;;;;;;;;;;7.12;100.00;97449.28;5085239;28;19924;-72
2023/04/12 02:02:07;;;;;;;;;;;;;;;7.09;100.00;97446.34;5088452;28;19924;-71
2023/04/12 02:04:34;;;;;;;;;;;;;;;7.11;100.00;97431.75;5088726;28;19925;-72
2023/04/12 02:07:01;;;;;;;;;;;;;;;7.20;100.00;97432.91;5089742;28;19935;-71
2023/04/12 02:09:27;;;;;;;;;;;;;;;7.12;100.00;97430.69;5087836;28;19925;-72
2023/04/12 02:11:55;;;;;;;;;;;;;;;7.65;100.00;97434.28;5086185;28;19932;-70
2023/04/12 02:14:21;;;;;;;;;;;;;;;7.90;100.00;97431.78;5071923;28;20377;-70
2023/04/12 02:16:49;;;;;;;;;;;;;;;8.12;100.00;97435.09;5070722;28;19924;-71
2023/04/12 02:19:18;;;;;;;;;;;;;;;8.39;100.00;97435.78;5084982;28;19925;-71
2023/04/12 02:21:45;;;;;;;;;;;;;;;8.46;100.00;97428.38;5066738;28;19925;-72
2023/04/12 02:24:12;;;;;;;;;;;;;;;8.33;100.00;97431.50;5087207;28;20238;-72
2023/04/12 02:26:39;;;;;;;;;;;;;;;7.98;100.00;97424.13;5088124;28;19924;-71
2023/04/12 02:29:06;;;;;;;;;;;;;;;7.99;100.00;97424.94;5086222;28;19924;-72
2023/04/12 02:31:33;;;;;;;;;;;;;;;7.58;100.00;97415.94;5068783;28;19925;-71
2023/04/12 02:33:59;;;;;;;;;;;;;;;7.66;100.00;97412.78;5083965;28;19948;-72
2023/04/12 02:36:27;;;;;;;;;;;;;;;7.60;100.00;97406.63;5087799;28;19924;-71
2023/04/12 02:38:54;;;;;;;;;;;;;;;7.73;100.00;97408.06;5087836;28;19974;-72
2023/04/12 02:41:21;;;;;;;;;;;;;;;7.73;100.00;97404.59;5084357;28;19921;-73
2023/04/12 02:43:48;;;;;;;;;;;;;;;7.56;100.00;97399.41;5066365;28;19984;-71
2023/04/12 02:46:22;;;;;;;;;;;;;;;7.20;100.00;97401.03;5086093;28;19932;-71
2023/04/12 02:48:49;;;;;;;;;;;;;;;7.37;100.00;97390.25;5087607;28;19925;-71
2023/04/12 02:51:15;;;;;;;;;;;;;;;7.44;100.00;97386.34;5084585;28;19932;-73
2023/04/12 02:53:43;;;;;;;;;;;;;;;7.22;100.00;97385.63;5099970;28;20186;-73
2023/04/12 02:56:09;;;;;;;;;;;;;;;7.24;100.00;97391.47;5086168;28;19920;-73
2023/04/12 02:58:36;;;;;;;;;;;;;;;7.34;100.00;97385.44;5087546;28;19924;-71
2023/04/12 03:01:06;;;;;;;;;;;;;;;7.44;100.00;97383.69;5088573;28;19924;-70
2023/04/12 03:03:33;;;;;;;;;;;;;;;7.38;100.00;97374.06;5083902;28;19943;-73
2023/04/12 03:05:59;;;;;;;;;;;;;;;7.43;100.00;97376.75;5066897;28;19925;-72
2023/04/12 03:08:26;;;;;;;;;;;;;;;7.46;100.00;97373.59;5087159;28;19924;-71
2023/04/12 03:10:55;;;;;;;;;;;;;;;7.65;100.00;97373.97;5087131;28;19925;-71
2023/04/12 03:13:21;;;;;;;;;;;;;;;8.09;100.00;97372.59;5083728;28;19932;-72
2023/04/12 03:15:48;;;;;;;;;;;;;;;8.20;100.00;97373.44;5083778;28;19931;-71
2023/04/12 03:18:14;;;;;;;;;;;;;;;8.07;100.00;97373.94;5086463;28;20304;-71
2023/04/12 03:20:42;;;;;;;;;;;;;;;7.83;100.00;97378.84;5087024;28;19924;-73
2023/04/12 03:23:08;;;;;;;;;;;;;;;7.37;100.00;97374.31;5084764;28;19931;-72
2023/04/12 03:25:35;;;;;;;;;;;;;;;7.31;100.00;97370.81;5083729;28;19925;-72
2023/04/12 03:28:03;;;;;;;;;;;;;;;7.46;100.00;97370.94;5084731;28;19935;-72
2023/04/12 03:30:29;;;;;;;;;;;;;;;7.85;100.00;97378.59;5071408;28;19924;-72
2023/04/12 03:32:56;;;;;;;;;;;;;;;7.94;100.00;97377.06;5068826;28;19987;-71
2023/04/12 03:35:23;;;;;;;;;;;;;;;7.94;100.00;97382.38;5075139;28;19925;-73
2023/04/12 03:37:50;;;;;;;;;;;;;;;7.93;100.00;97383.41;5065640;28;19925;-71
2023/04/12 03:40:16;;;;;;;;;;;;;;;7.43;100.00;97374.09;5086592;28;19924;-72
2023/04/12 03:42:43;;;;;;;;;;;;;;;7.09;100.00;97370.13;5086807;28;19924;-72
2023/04/12 03:45:11;;;;;;;;;;;;;;;7.05;100.00;97382.31;5084145;28;19931;-72
2023/04/12 03:47:37;;;;;;;;;;;;;;;7.90;100.00;97405.19;5083318;28;19936;-72
2023/04/12 03:50:06;;;;;;;;;;;;;;;8.06;100.00;97398.91;5085033;28;19932;-72
2023/04/12 03:52:32;;;;;;;;;;;;;;;7.73;100.00;97370.84;5086953;28;19933;-72
2023/04/12 03:54:59;;;;;;;;;;;;;;;7.90;100.00;97383.94;5086202;28;19947;-72
2023/04/12 03:57:25;;;;;;;;;;;;;;;7.77;100.00;97373.78;5083313;28;19925;-71
2023/04/12 03:59:52;;;;;;;;;;;;;;;6.91;100.00;97366.00;5085047;28;19932;-73
2023/04/12 04:02:19;;;;;;;;;;;;;;;6.74;100.00;97367.19;5086596;28;19924;-71
2023/04/12 04:04:46;;;;;;;;;;;;;;;6.36;100.00;97365.47;5086772;28;19924;-75
2023/04/12 04:07:12;;;;;;;;;;;;;;;6.38;100.00;97356.19;5066724;28;19928;-73
2023/04/12 04:09:38;;;;;;;;;;;;;;;6.20;100.00;97351.22;5085645;28;19924;-72
2023/04/12 04:12:05;;;;;;;;;;;;;;;6.36;100.00;97353.00;5091849;28;19921;-73
2023/04/12 04:14:33;;;;;;;;;;;;;;;6.43;100.00;97358.13;5077416;28;19909;-71
2023/04/12 04:17:01;;;;;;;;;;;;;;;7.10;100.00;97363.75;5076127;28;19971;-72
2023/04/12 04:19:29;;;;;;;;;;;;;;;7.29;100.00;97345.59;5091079;28;19943;-74
2023/04/12 04:21:55;;;;;;;;;;;;;;;7.01;100.00;97349.34;5091252;28;19928;-71
2023/04/12 04:24:23;;;;;;;;;;;;;;;7.07;100.00;97356.31;5094458;28;19912;-72
2023/04/12 04:26:53;;;;;;;;;;;;;;;6.75;100.00;97360.78;5094435;28;19915;-72
2023/04/12 04:29:19;;;;;;;;;;;;;;;6.80;100.00;97347.59;5098822;28;19920;-71
2023/04/12 04:31:46;;;;;;;;;;;;;;;6.73;100.00;97347.00;5091658;28;19909;-72
2023/04/12 04:34:12;;;;;;;;;;;;;;;6.56;100.00;97343.66;5088973;28;19929;-72
2023/04/12 04:36:40;;;;;;;;;;;;;;;6.53;100.00;97349.47;5086243;28;19939;-71
2023/04/12 04:39:07;;;;;;;;;;;;;;;6.81;100.00;97339.38;5084703;28;19950;-72
2023/04/12 04:41:38;;;;;;;;;;;;;;;7.14;100.00;97342.81;5064551;28;19929;-71
2023/04/12 04:44:08;;;;;;;;;;;;;;;7.18;100.00;97343.91;5084080;28;19931;-73
2023/04/12 04:46:35;;;;;;;;;;;;;;;7.06;100.00;97341.41;5068658;28;19931;-72
2023/04/12 04:49:02;;;;;;;;;;;;;;;6.84;100.00;97341.50;5067225;28;19924;-72
2023/04/12 04:51:29;;;;;;;;;;;;;;;6.65;100.00;97340.31;5065005;28;19996;-71
2023/04/12 04:53:57;;;;;;;;;;;;;;;6.33;100.00;97347.41;5082706;28;20383;-72
2023/04/12 04:56:23;;;;;;;;;;;;;;;6.19;100.00;97346.19;5086850;28;19928;-73
2023/04/12 04:58:50;;;;;;;;;;;;;;;6.26;100.00;97342.28;5089977;28;19925;-74
2023/04/12 05:01:16;;;;;;;;;;;;;;;6.31;100.00;97331.72;5070906;28;19935;-71
2023/04/12 05:03:43;;;;;;;;;;;;;;;6.27;100.00;97338.59;5086066;28;19932;-72
2023/04/12 05:06:10;;;;;;;;;;;;;;;6.16;100.00;97344.81;5070663;28;19925;-72
2023/04/12 05:08:36;;;;;;;;;;;;;;;6.15;100.00;97329.97;5089674;28;19920;-73
2023/04/12 05:11:04;;;;;;;;;;;;;;;6.68;100.00;97328.38;5070432;28;19921;-71
2023/04/12 05:13:30;;;;;;;;;;;;;;;6.21;100.00;97333.47;5086046;28;19932;-72
2023/04/12 05:15:57;;;;;;;;;;;;;;;6.03;100.00;97336.47;5087107;28;19925;-74
2023/04/12 05:18:23;;;;;;;;;;;;;;;6.16;100.00;97336.09;5071709;28;19928;-73
2023/04/12 05:20:50;;;;;;;;;;;;;;;6.00;100.00;97331.66;5089329;28;19932;-72
2023/04/12 05:23:16;;;;;;;;;;;;;;;6.18;100.00;97333.97;5086286;28;19924;-74
2023/04/12 05:25:46;;;;;;;;;;;;;;;6.15;100.00;97329.19;5084767;28;19921;-73
2023/04/12 05:28:16;;;;;;;;;;;;;;;5.92;100.00;97335.53;5088626;28;19929;-72
2023/04/12 05:30:42;;;;;;;;;;;;;;;5.94;100.00;97336.09;5073572;28;19925;-72
2023/04/12 05:33:08;;;;;;;;;;;;;;;5.90;100.00;97343.75;5087336;28;19921;-72
2023/04/12 05:35:35;;;;;;;;;;;;;;;6.04;100.00;97333.53;5085797;28;19925;-72
2023/04/12 05:38:01;;;;;;;;;;;;;;;5.95;100.00;97329.72;5069123;28;19947;-72
2023/04/12 05:40:30;;;;;;;;;;;;;;;5.79;100.00;97325.25;5089128;28;19926;-73
2023/04/12 05:42:56;;;;;;;;;;;;;;;6.29;100.00;97309.97;5088555;28;19931;-72
2023/04/12 05:45:24;;;;;;;;;;;;;;;6.16;100.00;97305.06;5085176;28;19925;-71
2023/04/12 05:47:50;;;;;;;;;;;;;;;6.14;100.00;97295.75;5085545;28;19931;-74
2023/04/12 05:50:17;;;;;;;;;;;;;;;6.06;100.00;97296.22;5070888;28;19924;-74
2023/04/12 05:52:43;;;;;;;;;;;;;;;6.11;100.00;97297.06;5088732;28;19932;-73
2023/04/12 05:55:10;;;;;;;;;;;;;;;5.99;100.00;97293.75;5086469;28;19924;-72
2023/04/12 05:57:36;;;;;;;;;;;;;;;5.92;100.00;97291.28;5067603;28;19996;-71
2023/04/12 06:00:05;;;;;;;;;;;;;;;5.98;100.00;97281.53;5070730;28;19924;-72
2023/04/12 06:02:33;;;;;;;;;;;;;;;5.86;100.00;97283.53;5088713;28;19925;-72
2023/04/12 06:05:01;;;;;;;;;;;;;;;5.81;100.00;97278.16;5087673;28;19924;-74
2023/04/12 06:07:28;;;;;;;;;;;;;;;5.66;100.00;97275.31;5085021;28;19921;-72
2023/04/12 06:09:55;;;;;;;;;;;;;;;5.70;100.00;97287.81;5085465;28;19925;-73
2023/04/12 06:12:21;;;;;;;;;;;;;;;5.72;100.00;97292.88;5088432;28;19935;-72
2023/04/12 06:14:47;;;;;;;;;;;;;;;6.02;100.00;97293.25;5070650;28;19932;-73
2023/04/12 06:17:14;;;;;;;;;;;;;;;5.94;100.00;97291.06;5085521;28;19940;-71
2023/04/12 06:19:41;;;;;;;;;;;;;;;5.95;100.00;97295.28;5085016;28;19920;-71
2023/04/12 06:22:08;;;;;;;;;;;;;;;5.85;100.00;97289.81;5087231;28;19921;-72
2023/04/12 06:24:34;;;;;;;;;;;;;;;5.81;100.00;97288.75;5071927;28;19955;-73
2023/04/12 06:27:01;;;;;;;;;;;;;;;5.82;100.00;97280.53;5088831;28;19924;-73
2023/04/12 06:29:27;;;;;;;;;;;;;;;5.82;100.00;97277.06;5085892;28;19925;-71
2023/04/12 06:31:53;;;;;;;;;;;;;;;5.80;100.00;97279.19;5068955;28;19925;-72
2023/04/12 06:34:20;;;;;;;;;;;;;;;5.79;100.00;97273.06;5088739;28;19924;-72
2023/04/12 06:36:47;;;;;;;;;;;;;;;5.73;100.00;97268.78;5087940;28;19931;-73
2023/04/12 06:39:15;;;;;;;;;;;;;;;5.80;100.00;97271.22;5085136;28;20473;-72
2023/04/12 06:41:42;;;;;;;;;;;;;;;6.10;100.00;97254.88;5084328;28;19925;-72
2023/04/12 06:44:08;;;;;;;;;;;;;;;6.09;100.00;97256.75;5086072;28;19925;-71
2023/04/12 06:46:35;;;;;;;;;;;;;;;6.22;100.00;97251.03;5087727;28;19928;-71
2023/04/12 06:49:01;;;;;;;;;;;;;;;6.07;100.00;97245.59;5086371;28;19931;-72
2023/04/12 06:51:28;;;;;;;;;;;;;;;6.01;100.00;97243.94;5084032;28;19932;-71
2023/04/12 06:53:56;;;;;;;;;;;;;;;6.00;100.00;97250.31;5066182;28;19927;-72
2023/04/12 06:56:22;;;;;;;;;;;;;;;5.91;100.00;97238.56;5087388;28;19932;-73
2023/04/12 06:58:49;;;;;;;;;;;;;;;5.96;100.00;97238.59;5069518;28;19925;-72
2023/04/12 07:01:16;;;;;;;;;;;;;;;6.02;100.00;97237.59;5086419;28;19928;-74
2023/04/12 07:03:42;;;;;;;;;;;;;;;6.11;100.00;97245.88;5065731;28;19924;-74
2023/04/12 07:06:09;;;;;;;;;;;;;;;6.06;100.00;97244.00;5068087;28;19925;-72
2023/04/12 07:08:36;;;;;;;;;;;;;;;6.04;100.00;97242.63;5087056;28;19928;-72
2023/04/12 07:11:04;;;;;;;;;;;;;;;5.81;100.00;97231.25;5085976;28;19932;-73
2023/04/12 07:13:30;;;;;;;;;;;;;;;5.82;100.00;97221.44;5083586;28;19925;-74
2023/04/12 07:15:57;;;;;;;;;;;;;;;5.81;100.00;97233.09;5065976;28;19925;-72
2023/04/12 07:18:23;;;;;;;;;;;;;;;6.16;100.00;97236.13;5086928;28;19924;-73
2023/04/12 07:20:50;;;;;;;;;;;;;;;6.22;100.00;97245.72;5086621;28;19924;-73
2023/04/12 07:23:16;;;;;;;;;;;;;;;6.24;100.00;97232.22;5066553;28;19925;-72
2023/04/12 07:25:42;;;;;;;;;;;;;;;6.27;100.00;97218.47;5067259;28;19925;-72
2023/04/12 07:28:10;;;;;;;;;;;;;;;6.32;100.00;97219.31;5086886;28;19925;-72
2023/04/12 07:30:38;;;;;;;;;;;;;;;6.32;100.00;97208.69;5069374;28;19928;-72
2023/04/12 07:33:05;;;;;;;;;;;;;;;6.28;100.00;97201.53;5075683;28;19925;-73
2023/04/12 07:35:31;;;;;;;;;;;;;;;6.36;100.00;97193.91;5075014;28;19925;-73
2023/04/12 07:37:58;;;;;;;;;;;;;;;6.40;100.00;97192.34;5074827;28;19932;-71
2023/04/12 07:40:24;;;;;;;;;;;;;;;6.39;100.00;97180.13;5057056;28;20365;-72
2023/04/12 07:42:50;;;;;;;;;;;;;;;6.40;100.00;97178.28;5082653;28;19925;-73
2023/04/12 07:45:18;;;;;;;;;;;;;;;6.51;100.00;97185.25;5083338;28;19929;-72
2023/04/12 07:47:45;;;;;;;;;;;;;;;6.50;100.00;97184.44;5082986;28;19928;-73
2023/04/12 07:50:11;;;;;;;;;;;;;;;6.42;100.00;97179.63;5085379;28;19943;-73
2023/04/12 07:52:38;;;;;;;;;;;;;;;6.44;100.00;97172.19;5086653;28;20253;-71
2023/04/12 07:55:05;;;;;;;;;;;;;;;6.55;100.00;97167.78;5084839;28;19925;-69
2023/04/12 07:57:31;;;;;;;;;;;;;;;6.67;100.00;97173.69;5064827;28;19925;-72
2023/04/12 07:59:57;;;;;;;;;;;;;;;6.65;100.00;97161.75;5085469;28;19924;-72
2023/04/12 08:02:25;;;;;;;;;;;;;;;6.69;100.00;97165.47;5086544;28;19931;-74
2023/04/12 08:05:05;;;;;;;;;;;;;;;6.61;100.00;97160.66;5086478;28;19927;-72
2023/04/12 08:07:32;;;;;;;;;;;;;;;6.68;100.00;97158.56;5074626;28;19927;-70
2023/04/12 08:09:58;;;;;;;;;;;;;;;6.77;100.00;97157.03;5074811;28;19933;-72
2023/04/12 08:12:25;;;;;;;;;;;;;;;6.78;100.00;97162.06;5065682;28;19925;-72
2023/04/12 08:14:51;;;;;;;;;;;;;;;6.89;100.00;97157.63;5074945;28;19925;-72
2023/04/12 08:19:59;;;;;;;;;;;;;;;6.94;100.00;97147.84;5068130;28;20524;-75
2023/04/12 08:22:25;;;;;;;;;;;;;;;6.92;100.00;97149.97;5065330;28;19932;-71
2023/04/12 08:24:52;;;;;;;;;;;;;;;6.95;100.00;97152.09;5083044;28;19925;-73
2023/04/12 08:27:18;;;;;;;;;;;;;;;7.00;100.00;97149.47;5086241;28;19989;-73
2023/04/12 08:29:44;;;;;;;;;;;;;;;6.95;100.00;97144.13;5068678;28;19924;-72
2023/04/12 08:32:11;;;;;;;;;;;;;;;7.04;100.00;97150.56;5088630;28;19921;-73
2023/04/12 08:34:37;;;;;;;;;;;;;;;7.03;100.00;97140.16;5090342;28;19924;-72
2023/04/12 08:37:05;;;;;;;;;;;;;;;7.06;100.00;97135.16;5089045;28;19936;-71
2023/04/12 08:39:32;;;;;;;;;;;;;;;7.13;100.00;97134.91;5087043;28;20549;-72
2023/04/12 08:42:00;;;;;;;;;;;;;;;7.19;100.00;97133.88;5087525;28;19920;-71
2023/04/12 08:44:33;;;;;;;;;;;;;;;7.25;100.00;97132.84;5090133;28;19950;-71
2023/04/12 08:47:01;;;;;;;;;;;;;;;7.35;100.00;97121.44;5089724;28;19932;-70
2023/04/12 08:49:27;;;;;;;;;;;;;;;7.44;100.00;97118.03;5086881;28;19932;-72
2023/04/12 08:51:53;;;;;;;;;;;;;;;7.37;100.00;97114.00;5086800;28;19925;-72
2023/04/12 08:54:21;;;;;;;;;;;;;;;7.45;100.00;97111.66;5090130;28;19932;-70
2023/04/12 08:56:48;;;;;;;;;;;;;;;7.58;100.00;97105.06;5090044;28;19921;-70
2023/04/12 08:59:14;;;;;;;;;;;;;;;7.60;100.00;97103.72;5092208;28;19927;-71
2023/04/12 09:01:41;;;;;;;;;;;;;;;7.59;100.00;97094.16;5078394;28;19928;-68
2023/04/12 09:04:07;;;;;;;;;;;;;;;7.54;100.00;97098.66;5078329;28;19920;-71
2023/04/12 09:06:34;;;;;;;;;;;;;;;7.60;100.00;97092.28;5097973;28;19909;-71
2023/04/12 09:09:05;;;;;;;;;;;;;;;7.56;100.00;97092.00;5097132;28;19909;-68
2023/04/12 09:11:32;;;;;;;;;;;;;;;7.54;100.00;97088.84;5077363;28;19921;-70
2023/04/12 09:13:59;;;;;;;;;;;;;;;7.55;100.00;97085.09;5095084;28;19913;-71
2023/04/12 09:16:36;;;;;;;;;;;;;;;7.62;100.00;97087.50;5097686;28;19917;-69
2023/04/12 09:19:03;;;;;;;;;;;;;;;7.60;100.00;97082.47;5078445;28;19913;-73
2023/04/12 09:21:30;;;;;;;;;;;;;;;7.64;100.00;97081.94;5085967;28;19925;-71
2023/04/12 09:24:04;;;;;;;;;;;;;;;7.61;100.00;97077.97;5086186;28;19929;-72
2023/04/12 09:26:32;;;;;;;;;;;;;;;7.61;100.00;97070.75;5089074;28;19925;-72
2023/04/12 09:28:58;;;;;;;;;;;;;;;7.58;100.00;97071.28;5088627;28;19924;-70
2023/04/12 09:31:25;;;;;;;;;;;;;;;7.67;100.00;97058.28;5070233;28;19948;-70
2023/04/12 09:33:52;;;;;;;;;;;;;;;7.65;100.00;97062.25;5085639;28;19951;-70
2023/04/12 09:36:18;;;;;;;;;;;;;;;7.70;100.00;97056.97;5088894;28;19924;-72
2023/04/12 09:38:58;;;;;;;;;;;;;;;7.72;100.00;97052.16;5089074;28;19925;-73
2023/04/12 09:41:26;;;;;;;;;;;;;;;7.71;100.00;97048.72;5089784;28;20309;-71
2023/04/12 09:43:53;;;;;;;;;;;;;;;7.74;100.00;97042.88;5088722;28;19920;-73
2023/04/12 09:46:21;;;;;;;;;;;;;;;7.87;100.00;97038.88;5089166;28;19948;-73
2023/04/12 09:48:51;;;;;;;;;;;;;;;7.96;100.00;97034.63;5089050;28;19924;-71
2023/04/12 09:51:25;;;;;;;;;;;;;;;7.97;100.00;97037.03;5085657;28;19925;-71
2023/04/12 09:53:52;;;;;;;;;;;;;;;8.03;100.00;97033.28;5067736;28;19943;-71
2023/04/12 09:56:19;;;;;;;;;;;;;;;8.03;100.00;97032.50;5088481;28;20116;-70
2023/04/12 09:58:47;;;;;;;;;;;;;;;8.18;100.00;97019.16;5070979;28;19924;-72
2023/04/12 10:01:15;;;;;;;;;;;;;;;8.22;100.00;97027.41;5088271;28;19928;-70
2023/04/12 10:03:41;;;;;;;;;;;;;;;8.26;100.00;97007.19;5085145;28;19921;-72
2023/04/12 10:06:12;;;;;;;;;;;;;;;8.35;100.00;97009.06;5069214;28;19932;-71
2023/04/12 10:08:39;;;;;;;;;;;;;;;8.43;100.00;97003.19;5088613;28;19951;-70
2023/04/12 10:11:06;;;;;;;;;;;;;;;8.53;100.00;96987.19;5069101;28;19974;-71
2023/04/12 10:13:33;;;;;;;;;;;;;;;8.59;100.00;96988.75;5084961;28;19931;-73
2023/04/12 10:16:00;;;;;;;;;;;;;;;8.68;100.00;96994.31;5085577;28;19929;-71
2023/04/12 10:18:28;;;;;;;;;;;;;;;8.66;100.00;96983.16;5088128;28;20799;-70
2023/04/12 10:20:55;;;;;;;;;;;;;;;8.75;100.00;96976.19;5070571;28;19924;-72
2023/04/12 10:23:21;;;;;;;;;;;;;;;8.85;100.00;96978.78;5084856;28;19925;-72
2023/04/12 10:25:48;;;;;;;;;;;;;;;8.91;100.00;96968.94;5084693;28;19925;-72
2023/04/12 10:28:16;;;;;;;;;;;;;;;8.82;100.00;96966.03;5087474;28;20500;-73
2023/04/12 10:30:42;;;;;;;;;;;;;;;8.83;100.00;96961.50;5072578;28;20489;-71
2023/04/12 10:33:13;;;;;;;;;;;;;;;8.74;100.00;96947.16;5068300;28;19932;-72
2023/04/12 10:35:51;;;;;;;;;;;;;;;8.76;100.00;96942.38;5084529;28;19983;-72
2023/04/12 10:38:17;;;;;;;;;;;;;;;8.81;100.00;96942.34;5069673;28;19935;-72
2023/04/12 10:40:59;;;;;;;;;;;;;;;8.96;100.00;96940.41;5070075;28;19924;-72
2023/04/12 10:43:26;;;;;;;;;;;;;;;9.12;100.00;96933.91;5071479;28;19932;-73
2023/04/12 10:45:52;;;;;;;;;;;;;;;9.03;100.00;96930.25;5087957;28;19924;-71
2023/04/12 10:48:29;;;;;;;;;;;;;;;9.01;100.00;96923.56;5066953;28;19924;-71
2023/04/12 10:51:10;;;;;;;;;;;;;;;9.01;100.00;96910.25;5084461;28;19925;-73
2023/04/12 10:53:37;;;;;;;;;;;;;;;9.00;100.00;96908.69;5087251;28;20067;-72
2023/04/12 10:56:28;;;;;;;;;;;;;;;8.92;100.00;96922.56;5086417;28;19924;-71
2023/04/12 10:58:56;;;;;;;;;;;;;;;8.92;100.00;96923.38;5084832;28;19925;-73
2023/04/12 11:01:22;;;;;;;;;;;;;;;8.88;100.00;96913.56;5093334;28;19995;-72
2023/04/12 11:04:08;;;;;;;;;;;;;;;8.87;100.00;96910.09;5085365;28;19932;-71
2023/04/12 11:06:48;;;;;;;;;;;;;;;8.93;100.00;96918.84;5076984;28;19932;-71
2023/04/12 11:09:23;;;;;;;;;;;;;;;8.95;100.00;96909.50;5076354;28;19925;-71
2023/04/12 11:11:49;;;;;;;;;;;;;;;8.92;100.00;96906.59;5075781;28;19925;-71
2023/04/12 11:14:16;;;;;;;;;;;;;;;8.82;100.00;96893.38;5057793;28;19947;-72
2023/04/12 11:17:01;;;;;;;;;;;;;;;8.93;100.00;96901.00;5083625;28;19925;-72
2023/04/12 11:19:28;;;;;;;;;;;;;;;9.02;100.00;96898.56;5075385;28;19929;-71
2023/04/12 11:21:54;;;;;;;;;;;;;;;8.97;100.00;96887.94;5075429;28;19929;-72
2023/04/12 11:24:22;;;;;;;;;;;;;;;8.93;100.00;96893.03;5083651;28;19925;-72
2023/04/12 11:26:52;;;;;;;;;;;;;;;9.00;100.00;96893.50;5083535;28;19924;-72
2023/04/12 11:29:22;;;;;;;;;;;;;;;8.99;100.00;96885.78;5068967;28;19924;-72
2023/04/12 11:31:51;;;;;;;;;;;;;;;9.07;100.00;96893.19;5069834;28;19925;-72
2023/04/12 11:34:17;;;;;;;;;;;;;;;9.08;100.00;96886.78;5086609;28;19940;-71
2023/04/12 11:36:45;;;;;;;;;;;;;;;9.08;100.00;96882.25;5069101;28;19932;-72
2023/04/12 11:39:11;;;;;;;;;;;;;;;9.14;100.00;96878.47;5084297;28;19935;-71
2023/04/12 11:41:43;;;;;;;;;;;;;;;9.12;100.00;96882.50;5083401;28;19925;-73
2023/04/12 11:44:09;;;;;;;;;;;;;;;9.19;100.00;96869.66;5085445;28;19925;-73
2023/04/12 11:46:36;;;;;;;;;;;;;;;9.13;100.00;96870.75;5086890;28;19924;-72
2023/04/12 11:49:02;;;;;;;;;;;;;;;9.14;100.00;96873.16;5085766;28;20348;-71
2023/04/12 11:51:29;;;;;;;;;;;;;;;9.20;100.00;96865.91;5083398;28;19925;-70
2023/04/12 11:53:57;;;;;;;;;;;;;;;9.25;100.00;96859.75;5083445;28;19925;-71
2023/04/12 11:56:23;;;;;;;;;;;;;;;9.27;100.00;96854.94;5069430;28;19924;-71
2023/04/12 11:58:51;;;;;;;;;;;;;;;9.25;100.00;96846.44;5086994;28;19932;-70
2023/04/12 12:01:18;;;;;;;;;;;;;;;9.32;100.00;96837.03;5086076;28;19929;-71
2023/04/12 12:03:45;;;;;;;;;;;;;;;9.39;100.00;96831.38;5083401;28;19925;-70
2023/04/12 12:06:12;;;;;;;;;;;;;;;9.53;100.00;96825.09;5085692;28;19931;-72
2023/04/12 12:11:20;;;;;;;;;;;;;;;9.65;100.00;96827.41;5083589;28;19925;-72
2023/04/12 12:13:47;;;;;;;;;;;;;;;9.63;100.00;96825.00;5083305;28;19925;-71
2023/04/12 12:16:16;;;;;;;;;;;;;;;9.63;100.00;96819.66;5085978;28;19957;-70
2023/04/12 12:18:42;;;;;;;;;;;;;;;9.69;100.00;96820.41;5086386;28;19931;-72
2023/04/12 12:21:09;;;;;;;;;;;;;;;9.81;100.00;96820.78;5084403;28;20333;-71
2023/04/12 12:23:36;;;;;;;;;;;;;;;9.77;100.00;96820.59;5082792;28;19925;-71
2023/04/12 12:26:04;;;;;;;;;;;;;;;9.80;100.00;96813.91;5083809;28;19932;-71
2023/04/12 12:28:30;;;;;;;;;;;;;;;9.85;100.00;96813.03;5086073;28;19924;-71
2023/04/12 12:30:57;;;;;;;;;;;;;;;9.94;100.00;96812.13;5087851;28;19924;-72
2023/04/12 12:33:25;;;;;;;;;;;;;;;9.90;100.00;96807.66;5082537;28;19925;-71
2023/04/12 12:35:55;;;;;;;;;;;;;;;9.90;100.00;96805.00;5082624;28;19924;-72
2023/04/12 12:38:21;;;;;;;;;;;;;;;10.00;100.00;96810.19;5086729;28;19920;-71
2023/04/12 12:40:48;;;;;;;;;;;;;;;10.10;100.00;96789.50;5068452;28;19928;-70
2023/04/12 12:43:18;;;;;;;;;;;;;;;10.10;100.00;96797.53;5065678;28;19925;-73
2023/04/12 12:45:45;;;;;;;;;;;;;;;9.87;100.00;96813.56;5064857;28;19925;-72
2023/04/12 12:48:11;;;;;;;;;;;;;;;9.89;100.00;96806.06;5084739;28;19990;-71
2023/04/12 12:50:39;;;;;;;;;;;;;;;10.03;100.00;96796.28;5086007;28;19936;-71
2023/04/12 12:53:07;;;;;;;;;;;;;;;10.04;100.00;96787.19;5067516;28;19920;-71